createdAt,value
2023-04-14T00:02:10.621Z,9.08
2023-04-14T00:04:37.675Z,9.04
2023-04-14T00:07:04.607Z,9.04
2023-04-14T00:09:31.456Z,9.01
2023-04-14T00:11:58.332Z,9.03
2023-04-14T00:14:25.252Z,9.06
2023-04-14T00:16:52.126Z,9.06
2023-04-14T00:19:18.971Z,9.04
2023-04-14T00:21:45.812Z,9.04
2023-04-14T00:24:12.637Z,9.03
2023-04-14T00:26:39.514Z,9.00
2023-04-14T00:29:06.369Z,9.01
2023-04-14T00:31:33.319Z,9.01
2023-04-14T00:34:00.156Z,9.00
2023-04-14T00:36:27.052Z,9.01
2023-04-14T00:38:53.860Z,9.01
2023-04-14T00:41:20.661Z,8.99
2023-04-14T00:43:47.505Z,9.01
2023-04-14T00:46:17.191Z,9.03
2023-04-14T00:48:44.565Z,9.01
2023-04-14T00:51:12.062Z,9.01
2023-04-14T00:53:39.974Z,8.98
2023-04-14T00:56:08.169Z,8.95
2023-04-14T00:58:35.843Z,8.97
2023-04-14T01:01:02.997Z,8.95
2023-04-14T01:03:29.949Z,8.95
2023-04-14T01:05:56.960Z,8.95
2023-04-14T01:08:25.033Z,8.94
2023-04-14T01:11:10.153Z,8.90
2023-04-14T01:13:55.530Z,8.88
2023-04-14T01:16:32.087Z,8.84
2023-04-14T01:19:32.696Z,8.88
2023-04-14T01:22:05.779Z,8.87
2023-04-14T01:25:23.813Z,8.85
2023-04-14T01:28:04.700Z,8.83
2023-04-14T01:30:52.679Z,8.83
2023-04-14T01:33:23.926Z,8.82
2023-04-14T01:35:57.302Z,8.81
2023-04-14T01:38:35.990Z,8.74
2023-04-14T01:41:09.558Z,8.78
2023-04-14T01:43:43.968Z,8.80
2023-04-14T01:46:16.039Z,8.77
2023-04-14T01:48:43.605Z,8.76
2023-04-14T01:51:12.108Z,8.80
2023-04-14T01:53:42.961Z,8.81
2023-04-14T01:56:12.912Z,8.76
2023-04-14T01:58:41.472Z,8.76
2023-04-14T02:01:08.660Z,8.75
2023-04-14T02:03:37.229Z,8.77
2023-04-14T02:06:06.372Z,8.69
2023-04-14T02:08:34.260Z,8.75
2023-04-14T02:11:03.060Z,8.72
2023-04-14T02:13:32.147Z,8.73
2023-04-14T02:16:00.850Z,8.70
2023-04-14T02:18:29.824Z,8.67
2023-04-14T02:20:59.360Z,8.63
2023-04-14T02:23:26.216Z,8.64
2023-04-14T02:26:01.628Z,8.64
2023-04-14T02:28:32.541Z,8.62
2023-04-14T02:31:06.034Z,8.60
2023-04-14T02:33:36.899Z,8.58
2023-04-14T02:36:14.417Z,8.57
2023-04-14T02:38:54.058Z,8.52
2023-04-14T02:41:26.177Z,8.50
2023-04-14T02:44:19.293Z,8.50
2023-04-14T02:47:09.949Z,8.44
2023-04-14T02:49:40.366Z,8.43
2023-04-14T02:52:11.158Z,8.41
2023-04-14T02:54:41.599Z,8.40
2023-04-14T02:57:09.057Z,8.33
2023-04-14T02:59:37.039Z,8.38
2023-04-14T03:02:06.115Z,8.36
2023-04-14T03:04:35.268Z,8.36
2023-04-14T03:07:05.525Z,8.35
2023-04-14T03:09:32.934Z,8.30
2023-04-14T03:12:03.075Z,8.34
2023-04-14T03:14:31.386Z,8.26
2023-04-14T03:16:59.983Z,8.26
2023-04-14T03:19:28.140Z,8.21
2023-04-14T03:21:57.920Z,8.24
2023-04-14T03:24:28.482Z,8.22
2023-04-14T03:27:01.803Z,8.20
2023-04-14T03:29:45.667Z,8.19
2023-04-14T03:32:15.330Z,8.17
2023-04-14T03:34:44.085Z,8.15
2023-04-14T03:37:11.987Z,8.14
2023-04-14T03:39:39.651Z,8.11
2023-04-14T03:42:13.692Z,8.10
2023-04-14T03:44:46.257Z,8.07
2023-04-14T03:47:14.504Z,8.01
2023-04-14T03:49:43.724Z,7.98
2023-04-14T03:52:13.679Z,8.02
2023-04-14T03:54:43.115Z,7.94
2023-04-14T03:57:12.198Z,8.00
2023-04-14T03:59:39.967Z,7.98
2023-04-14T04:02:09.231Z,7.95
2023-04-14T04:04:37.241Z,7.96
2023-04-14T04:07:05.277Z,7.89
2023-04-14T04:09:35.134Z,7.90
2023-04-14T04:12:03.517Z,7.88
2023-04-14T04:14:32.895Z,7.86
2023-04-14T04:17:05.275Z,7.83
2023-04-14T04:19:34.572Z,7.82
2023-04-14T04:22:03.450Z,7.80
2023-04-14T04:24:40.225Z,7.77
2023-04-14T04:27:14.386Z,7.75
2023-04-14T04:29:48.797Z,7.73
2023-04-14T04:32:15.827Z,7.73
2023-04-14T04:34:43.506Z,7.74
2023-04-14T04:37:11.004Z,7.67
2023-04-14T04:39:37.876Z,7.71
2023-04-14T04:42:06.760Z,7.70
2023-04-14T04:44:34.892Z,7.62
2023-04-14T04:47:02.488Z,7.64
2023-04-14T04:49:29.378Z,7.63
2023-04-14T04:51:59.726Z,7.61
2023-04-14T04:54:27.165Z,7.59
2023-04-14T04:56:54.109Z,7.55
2023-04-14T04:59:20.986Z,7.53
2023-04-14T05:01:47.914Z,7.51
2023-04-14T05:04:15.000Z,7.51
2023-04-14T05:06:42.032Z,7.48
2023-04-14T05:09:09.266Z,7.45
2023-04-14T05:11:36.602Z,7.43
2023-04-14T05:14:03.559Z,7.42
2023-04-14T05:16:30.453Z,7.41
2023-04-14T05:18:57.372Z,7.36
2023-04-14T05:21:24.246Z,7.33
2023-04-14T05:23:51.083Z,7.35
2023-04-14T05:28:47.659Z,7.33
2023-04-14T05:31:14.523Z,7.32
2023-04-14T05:33:41.413Z,7.28
2023-04-14T05:36:08.393Z,7.27
2023-04-14T05:38:41.580Z,7.23
2023-04-14T05:41:08.565Z,7.30
2023-04-14T05:43:35.603Z,7.30
2023-04-14T05:46:02.676Z,7.30
2023-04-14T05:48:30.921Z,7.31
2023-04-14T05:50:58.280Z,7.27
2023-04-14T05:53:25.285Z,7.28
2023-04-14T05:55:52.755Z,7.26
2023-04-14T05:58:20.027Z,7.33
2023-04-14T06:00:46.943Z,7.35
2023-04-14T06:03:15.083Z,7.36
2023-04-14T06:05:42.103Z,7.36
2023-04-14T06:08:08.925Z,7.39
2023-04-14T06:10:35.863Z,7.38
2023-04-14T06:13:02.766Z,7.35
2023-04-14T06:15:29.807Z,7.38
2023-04-14T06:17:56.873Z,7.44
2023-04-14T06:20:23.928Z,7.43
2023-04-14T06:22:50.812Z,7.47
2023-04-14T06:25:17.639Z,7.46
2023-04-14T06:27:44.536Z,7.49
2023-04-14T06:30:11.838Z,7.51
2023-04-14T06:32:38.764Z,7.55
2023-04-14T06:35:06.463Z,7.57
2023-04-14T06:37:33.286Z,7.51
2023-04-14T06:40:00.152Z,7.55
2023-04-14T06:42:27.265Z,7.63
2023-04-14T06:44:54.095Z,7.67
2023-04-14T06:47:21.778Z,7.56
2023-04-14T06:49:48.698Z,7.48
2023-04-14T06:52:15.488Z,7.56
2023-04-14T06:54:42.373Z,7.68
2023-04-14T06:57:09.327Z,7.74
2023-04-14T06:59:37.474Z,7.79
2023-04-14T07:02:04.561Z,7.83
2023-04-14T07:04:31.542Z,7.87
2023-04-14T07:07:01.736Z,7.90
2023-04-14T07:09:29.330Z,7.95
2023-04-14T07:11:57.524Z,7.99
2023-04-14T07:14:24.938Z,7.99
2023-04-14T07:16:52.371Z,8.04
2023-04-14T07:19:19.534Z,8.06
2023-04-14T07:21:47.091Z,8.11
2023-04-14T07:24:15.531Z,8.10
2023-04-14T07:26:44.160Z,8.13
2023-04-14T07:29:11.113Z,8.21
2023-04-14T07:31:39.677Z,8.20
2023-04-14T07:34:07.772Z,8.26
2023-04-14T07:36:34.875Z,8.29
2023-04-14T07:39:01.741Z,8.31
2023-04-14T07:41:28.644Z,8.33
2023-04-14T07:43:55.734Z,8.27
2023-04-14T07:46:22.812Z,8.22
2023-04-14T07:48:49.684Z,8.29
2023-04-14T07:51:16.664Z,8.22
2023-04-14T07:53:45.082Z,8.09
2023-04-14T07:56:12.962Z,8.40
2023-04-14T07:58:40.184Z,8.44
2023-04-14T08:01:07.713Z,8.40
2023-04-14T08:03:37.293Z,8.52
2023-04-14T08:06:07.975Z,8.57
2023-04-14T08:08:35.740Z,8.58
2023-04-14T08:11:02.637Z,8.61
2023-04-14T08:13:29.449Z,8.66
2023-04-14T08:15:56.419Z,8.58
2023-04-14T08:18:23.311Z,8.63
2023-04-14T08:20:50.221Z,8.59
2023-04-14T08:23:17.144Z,8.64
2023-04-14T08:25:44.632Z,8.60
2023-04-14T08:28:12.362Z,8.69
2023-04-14T08:30:39.201Z,8.61
2023-04-14T08:33:06.109Z,8.76
2023-04-14T08:35:36.914Z,8.81
2023-04-14T08:38:07.530Z,8.81
2023-04-14T08:40:40.810Z,8.79
2023-04-14T08:43:08.027Z,8.86
2023-04-14T08:45:35.606Z,8.88
2023-04-14T08:48:04.046Z,9.02
2023-04-14T08:50:45.361Z,9.09
2023-04-14T08:53:13.995Z,9.11
2023-04-14T08:55:41.872Z,9.17
2023-04-14T08:58:12.346Z,9.28
2023-04-14T09:00:42.205Z,9.28
2023-04-14T09:03:09.648Z,9.37
2023-04-14T09:05:38.039Z,9.40
2023-04-14T09:08:04.971Z,9.37
2023-04-14T09:10:32.547Z,9.32
2023-04-14T09:13:00.281Z,9.41
2023-04-14T09:15:28.975Z,9.43
2023-04-14T09:17:56.545Z,9.51
2023-04-14T09:20:38.393Z,9.47
2023-04-14T09:23:10.095Z,9.54
2023-04-14T09:25:40.064Z,9.61
2023-04-14T09:28:07.517Z,9.65
2023-04-14T09:30:34.831Z,9.72
2023-04-14T09:33:18.618Z,9.82
2023-04-14T09:35:49.160Z,9.83
2023-04-14T09:38:32.433Z,9.89
2023-04-14T09:40:59.506Z,9.91
2023-04-14T09:43:27.833Z,9.99
2023-04-14T09:45:55.894Z,10.16
2023-04-14T09:48:23.215Z,10.26
2023-04-14T09:51:11.630Z,10.10
2023-04-14T09:53:42.667Z,9.97
2023-04-14T09:56:12.772Z,10.04
2023-04-14T09:58:45.057Z,10.12
2023-04-14T10:01:19.834Z,10.19
2023-04-14T10:03:48.282Z,10.01
2023-04-14T10:06:21.113Z,10.33
2023-04-14T10:08:50.574Z,10.34
2023-04-14T10:11:20.088Z,10.51
2023-04-14T10:13:59.196Z,10.58
2023-04-14T10:16:26.644Z,10.54
2023-04-14T10:18:54.776Z,10.57
2023-04-14T10:21:24.820Z,10.65
2023-04-14T10:23:52.155Z,10.65
2023-04-14T10:26:20.020Z,10.67
2023-04-14T10:28:50.860Z,10.99
2023-04-14T10:31:32.671Z,11.15
2023-04-14T10:34:07.059Z,11.32
2023-04-14T10:36:36.742Z,11.42
2023-04-14T10:39:05.767Z,11.77
2023-04-14T10:41:48.996Z,11.88
2023-04-14T10:44:28.871Z,12.44
2023-04-14T10:46:57.584Z,12.50
2023-04-14T10:49:30.384Z,13.04
2023-04-14T10:52:02.081Z,13.21
2023-04-14T10:54:28.934Z,13.34
2023-04-14T10:57:11.169Z,13.75
2023-04-14T10:59:43.607Z,14.41
2023-04-14T11:02:28.165Z,14.81
2023-04-14T11:05:11.625Z,14.78
2023-04-14T11:07:44.959Z,15.22
2023-04-14T11:10:24.119Z,15.02
2023-04-14T11:13:01.489Z,15.07
2023-04-14T11:16:00.449Z,15.66
2023-04-14T11:18:30.138Z,15.61
2023-04-14T11:21:04.879Z,15.01
2023-04-14T11:23:32.244Z,15.18
2023-04-14T11:26:00.412Z,14.58
2023-04-14T11:28:36.042Z,14.56
2023-04-14T11:31:08.344Z,13.78
2023-04-14T11:33:38.428Z,13.73
2023-04-14T11:36:07.788Z,13.97
2023-04-14T11:38:36.492Z,13.89
2023-04-14T11:41:04.318Z,14.43
2023-04-14T11:43:31.546Z,14.43
2023-04-14T11:46:03.053Z,14.04
2023-04-14T11:48:30.467Z,14.91
2023-04-14T11:51:03.130Z,14.50
2023-04-14T11:53:30.170Z,14.88
2023-04-14T11:56:00.730Z,14.15
2023-04-14T11:58:28.991Z,14.20
2023-04-14T12:00:57.584Z,13.78
2023-04-14T12:03:29.646Z,13.59
2023-04-14T12:06:01.922Z,13.36
2023-04-14T12:08:33.133Z,13.12
2023-04-14T12:11:15.622Z,13.37
2023-04-14T12:13:47.319Z,13.04
2023-04-14T12:16:16.298Z,13.18
2023-04-14T12:18:44.532Z,13.37
2023-04-14T12:21:18.431Z,13.75
2023-04-14T12:23:50.091Z,13.58
2023-04-14T12:26:17.821Z,13.29
2023-04-14T12:28:45.007Z,13.50
2023-04-14T12:31:11.983Z,13.38
2023-04-14T12:33:39.008Z,13.17
2023-04-14T12:36:12.790Z,13.03
2023-04-14T12:38:39.871Z,12.92
2023-04-14T12:41:06.743Z,13.50
2023-04-14T12:43:36.440Z,14.01
2023-04-14T12:46:04.688Z,14.17
2023-04-14T12:48:44.596Z,14.20
2023-04-14T12:51:17.687Z,13.99
2023-04-14T12:53:46.923Z,13.96
2023-04-14T12:56:19.504Z,14.00
2023-04-14T12:58:47.687Z,14.04
2023-04-14T13:01:17.079Z,14.13
2023-04-14T13:03:55.276Z,14.10
2023-04-14T13:06:24.793Z,13.89
2023-04-14T13:08:58.422Z,14.07
2023-04-14T13:11:25.375Z,14.09
2023-04-14T13:13:53.716Z,13.89
2023-04-14T13:16:21.409Z,13.60
2023-04-14T13:18:49.105Z,13.67
2023-04-14T13:21:16.627Z,13.52
2023-04-14T13:23:43.780Z,13.67
2023-04-14T13:26:10.798Z,13.66
2023-04-14T13:28:37.777Z,13.72
2023-04-14T13:31:04.816Z,13.54
2023-04-14T13:33:32.820Z,13.50
2023-04-14T13:36:00.526Z,13.60
2023-04-14T13:38:28.262Z,13.49
2023-04-14T13:40:55.626Z,13.39
2023-04-14T13:43:23.477Z,13.35
2023-04-14T13:45:50.612Z,13.56
2023-04-14T13:48:17.507Z,13.93
2023-04-14T13:50:44.429Z,14.03
2023-04-14T13:53:12.292Z,13.86
2023-04-14T13:55:39.245Z,13.89
2023-04-14T13:58:06.289Z,13.80
2023-04-14T14:00:33.156Z,13.91
2023-04-14T14:03:00.443Z,13.83
2023-04-14T14:05:27.808Z,13.77
2023-04-14T14:07:56.355Z,13.80
2023-04-14T14:10:23.251Z,13.88
2023-04-14T14:12:50.068Z,13.90
2023-04-14T14:15:16.952Z,13.82
2023-04-14T14:17:43.768Z,13.84
2023-04-14T14:20:10.769Z,13.95
2023-04-14T14:22:37.678Z,14.17
2023-04-14T14:25:18.337Z,13.97
2023-04-14T14:27:46.935Z,13.98
2023-04-14T14:30:13.930Z,13.86
2023-04-14T14:32:40.772Z,13.86
2023-04-14T14:35:08.217Z,13.91
2023-04-14T14:37:35.166Z,13.86
2023-04-14T14:40:02.066Z,13.89
2023-04-14T14:42:28.933Z,13.95
2023-04-14T14:44:57.405Z,14.04
2023-04-14T14:47:24.942Z,14.05
2023-04-14T14:49:59.623Z,13.99
2023-04-14T14:52:29.492Z,13.90
2023-04-14T14:54:56.382Z,14.02
2023-04-14T14:57:23.247Z,13.99
2023-04-14T14:59:50.067Z,14.14
2023-04-14T15:02:17.145Z,13.96
2023-04-14T15:04:44.616Z,13.97
2023-04-14T15:07:12.033Z,14.14
2023-04-14T15:09:39.265Z,13.99
2023-04-14T15:12:06.056Z,13.96
2023-04-14T15:14:32.937Z,13.93
2023-04-14T15:16:59.838Z,14.12
2023-04-14T15:19:27.095Z,14.16
2023-04-14T15:21:54.052Z,14.22
2023-04-14T15:24:20.899Z,14.20
2023-04-14T15:26:47.753Z,14.17
2023-04-14T15:29:14.601Z,14.20
2023-04-14T15:31:41.448Z,14.02
2023-04-14T15:34:08.269Z,14.00
2023-04-14T15:36:35.061Z,14.08
2023-04-14T15:39:01.886Z,14.11
2023-04-14T15:41:28.870Z,14.14
2023-04-14T15:43:55.822Z,14.22
2023-04-14T15:46:22.812Z,14.27
2023-04-14T15:48:49.679Z,14.31
2023-04-14T15:51:16.998Z,14.37
2023-04-14T15:53:43.839Z,14.36
2023-04-14T15:56:10.637Z,14.20
2023-04-14T15:58:37.500Z,14.17
2023-04-14T16:01:08.263Z,14.27
2023-04-14T16:03:36.768Z,14.37
2023-04-14T16:06:07.216Z,14.35
2023-04-14T16:08:34.260Z,14.24
2023-04-14T16:11:01.157Z,14.26
2023-04-14T16:13:28.124Z,14.22
2023-04-14T16:15:54.983Z,14.23
2023-04-14T16:18:21.908Z,14.18
2023-04-14T16:20:50.298Z,14.21
2023-04-14T16:23:17.243Z,14.26
2023-04-14T16:25:49.492Z,14.38
2023-04-14T16:28:16.582Z,14.37
2023-04-14T16:30:43.660Z,14.43
2023-04-14T16:33:10.758Z,14.44
2023-04-14T16:35:37.769Z,14.48
2023-04-14T16:38:08.418Z,14.63
2023-04-14T16:40:36.249Z,14.55
2023-04-14T16:43:03.617Z,14.51
2023-04-14T16:45:34.613Z,14.57
2023-04-14T16:48:01.961Z,14.61
2023-04-14T16:50:29.425Z,14.66
2023-04-14T16:52:56.303Z,14.97
2023-04-14T16:55:23.142Z,15.06
2023-04-14T16:57:50.014Z,14.90
2023-04-14T17:00:17.201Z,15.01
2023-04-14T17:02:44.262Z,15.11
2023-04-14T17:05:13.322Z,15.08
2023-04-14T17:07:40.720Z,15.15
2023-04-14T17:10:08.028Z,15.25
2023-04-14T17:12:34.872Z,15.40
2023-04-14T17:15:03.533Z,15.47
2023-04-14T17:17:31.475Z,15.42
2023-04-14T17:19:58.348Z,15.36
2023-04-14T17:22:25.124Z,15.40
2023-04-14T17:24:52.388Z,15.32
2023-04-14T17:27:19.417Z,15.19
2023-04-14T17:29:46.363Z,14.96
2023-04-14T17:32:13.575Z,14.96
2023-04-14T17:34:40.864Z,14.91
2023-04-14T17:37:07.750Z,14.91
2023-04-14T17:39:34.579Z,14.73
2023-04-14T17:42:01.556Z,14.67
2023-04-14T17:44:34.317Z,14.59
2023-04-14T17:47:03.097Z,14.60
2023-04-14T17:49:31.435Z,14.58
2023-04-14T17:51:58.623Z,14.38
2023-04-14T17:54:25.850Z,14.24
2023-04-14T17:56:52.790Z,14.18
2023-04-14T17:59:20.664Z,14.02
2023-04-14T18:01:47.655Z,14.07
2023-04-14T18:04:15.327Z,13.90
2023-04-14T18:06:42.271Z,13.86
2023-04-14T18:09:09.595Z,13.77
2023-04-14T18:11:36.603Z,13.72
2023-04-14T18:14:03.738Z,13.66
2023-04-14T18:16:31.334Z,13.62
2023-04-14T18:18:58.846Z,13.60
2023-04-14T18:21:27.231Z,13.43
2023-04-14T18:28:53.898Z,13.34
2023-04-14T18:31:20.743Z,13.29
2023-04-14T18:33:47.929Z,13.24
2023-04-14T18:36:14.768Z,13.16
2023-04-14T18:38:41.599Z,13.16
2023-04-14T18:41:08.806Z,13.15
2023-04-14T18:43:35.614Z,13.21
2023-04-14T18:46:02.577Z,13.22
2023-04-14T18:48:29.436Z,13.17
2023-04-14T18:51:02.213Z,13.36
2023-04-14T18:53:29.450Z,13.35
2023-04-14T18:55:56.280Z,13.32
2023-04-14T18:58:23.811Z,13.29
2023-04-14T19:00:51.393Z,13.23
2023-04-14T19:03:18.567Z,13.16
2023-04-14T19:05:45.470Z,13.18
2023-04-14T19:08:12.339Z,13.14
2023-04-14T19:10:39.787Z,13.10
2023-04-14T19:13:06.616Z,13.05
2023-04-14T19:15:33.420Z,13.01
2023-04-14T19:18:01.058Z,12.87
2023-04-14T19:20:27.943Z,12.97
2023-04-14T19:22:54.819Z,12.91
2023-04-14T19:25:22.360Z,12.91
2023-04-14T19:27:49.287Z,12.85
2023-04-14T19:30:16.164Z,12.85
2023-04-14T19:32:43.016Z,12.82
2023-04-14T19:35:10.380Z,12.80
2023-04-14T19:37:38.368Z,12.78
2023-04-14T19:40:06.826Z,12.72
2023-04-14T19:42:33.759Z,12.66
2023-04-14T19:45:01.100Z,12.59
2023-04-14T19:47:28.178Z,12.47
2023-04-14T19:49:55.301Z,12.48
2023-04-14T19:52:22.549Z,12.46
2023-04-14T19:54:49.711Z,12.41
2023-04-14T19:57:16.839Z,12.35
2023-04-14T19:59:44.323Z,12.27
2023-04-14T20:02:13.139Z,12.23
2023-04-14T20:04:40.633Z,12.25
2023-04-14T20:07:07.677Z,12.20
2023-04-14T20:09:34.715Z,12.12
2023-04-14T20:12:04.482Z,12.05
2023-04-14T20:14:31.303Z,12.01
2023-04-14T20:16:59.358Z,11.98
2023-04-14T20:19:26.226Z,11.90
2023-04-14T20:21:53.024Z,11.83
2023-04-14T20:24:20.052Z,11.81
2023-04-14T20:26:46.951Z,11.68
2023-04-14T20:29:13.919Z,11.66
2023-04-14T20:31:42.682Z,11.61
2023-04-14T20:34:10.308Z,11.58
2023-04-14T20:36:37.743Z,11.52
2023-04-14T20:39:06.196Z,11.52
2023-04-14T20:41:34.572Z,11.44
2023-04-14T20:44:01.522Z,11.45
2023-04-14T20:46:28.836Z,11.39
2023-04-14T20:48:56.643Z,11.35
2023-04-14T20:51:23.721Z,11.35
2023-04-14T20:53:50.694Z,11.31
2023-04-14T20:56:17.777Z,11.19
2023-04-14T20:58:45.542Z,11.18
2023-04-14T21:01:12.587Z,11.12
2023-04-14T21:03:40.169Z,11.07
2023-04-14T21:06:07.131Z,11.03
2023-04-14T21:08:34.999Z,10.99
2023-04-14T21:11:14.774Z,10.95
2023-04-14T21:15:29.496Z,10.84
2023-04-14T21:16:30.411Z,10.83
2023-04-14T21:18:57.498Z,10.76
2023-04-14T21:21:24.526Z,10.77
2023-04-14T21:23:51.493Z,10.75
2023-04-14T21:26:18.531Z,10.72
2023-04-14T21:28:45.730Z,10.66
2023-04-14T21:31:12.611Z,10.63
2023-04-14T21:33:41.533Z,10.58
2023-04-14T21:36:11.844Z,10.52
2023-04-14T21:38:39.134Z,10.50
2023-04-14T21:41:07.957Z,10.45
2023-04-14T21:43:37.073Z,10.41
2023-04-14T21:46:05.153Z,10.38
2023-04-14T21:48:32.233Z,10.35
2023-04-14T21:50:59.107Z,10.27
2023-04-14T21:53:26.272Z,10.24
2023-04-14T21:56:10.513Z,10.21
2023-04-14T21:58:39.405Z,10.17
2023-04-14T22:01:07.867Z,10.16
2023-04-14T22:03:37.213Z,10.14
2023-04-14T22:06:04.693Z,10.11
2023-04-14T22:08:31.492Z,9.88
2023-04-14T22:10:58.336Z,10.03
2023-04-14T22:13:25.180Z,9.96
2023-04-14T22:15:52.125Z,9.92
2023-04-14T22:18:19.104Z,9.88
2023-04-14T22:20:45.888Z,9.83
2023-04-14T22:23:13.276Z,9.77
2023-04-14T22:25:40.214Z,9.69
2023-04-14T22:28:07.396Z,9.71
2023-04-14T22:30:34.404Z,9.67
2023-04-14T22:33:01.391Z,9.65
2023-04-14T22:35:29.263Z,9.63
2023-04-14T22:37:56.062Z,9.59
2023-04-14T22:40:23.332Z,9.53
2023-04-14T22:42:50.245Z,9.44
2023-04-14T22:45:17.193Z,9.48
2023-04-14T22:47:44.043Z,9.44
2023-04-14T22:50:11.035Z,9.45
2023-04-14T22:52:37.882Z,9.40
2023-04-14T22:55:05.096Z,9.38
2023-04-14T22:57:31.875Z,9.29
2023-04-14T22:59:59.105Z,9.33
2023-04-14T23:02:26.081Z,9.32
2023-04-14T23:04:53.259Z,9.28
2023-04-14T23:07:20.220Z,9.24
2023-04-14T23:09:47.016Z,9.22
2023-04-14T23:12:13.918Z,9.19
2023-04-14T23:14:40.856Z,9.15
2023-04-14T23:17:07.655Z,9.13
2023-04-14T23:19:35.775Z,9.10
2023-04-14T23:22:03.268Z,9.09
2023-04-14T23:24:30.076Z,9.06
2023-04-14T23:26:57.578Z,8.97
2023-04-14T23:29:24.474Z,8.97
2023-04-14T23:31:51.812Z,8.92
2023-04-14T23:34:18.721Z,8.93
2023-04-14T23:36:49.484Z,8.88
2023-04-14T23:39:16.371Z,8.84
2023-04-14T23:41:43.188Z,8.82
2023-04-14T23:44:10.011Z,8.80
2023-04-14T23:46:36.846Z,8.80
2023-04-14T23:49:23.327Z,8.77
2023-04-14T23:51:50.619Z,8.75
2023-04-14T23:54:17.454Z,8.72
2023-04-14T23:56:44.246Z,8.67
2023-04-14T23:59:11.079Z,8.67
